createdAt,value
2023-07-08T00:00:08.859Z,71.75
2023-07-08T00:01:08.919Z,72.89
2023-07-08T00:02:08.971Z,70.73
2023-07-08T00:03:09.096Z,74.93
2023-07-08T00:04:09.126Z,73.16
2023-07-08T00:05:09.106Z,72.11
2023-07-08T00:06:09.153Z,77.04
2023-07-08T00:07:09.221Z,75.94
2023-07-08T00:08:09.323Z,78.89
2023-07-08T00:09:09.415Z,78.50
2023-07-08T00:10:09.435Z,80.38
2023-07-08T00:11:09.472Z,78.13
2023-07-08T00:12:09.492Z,80.05
2023-07-08T00:13:09.597Z,80.39
2023-07-08T00:14:09.648Z,81.22
2023-07-08T00:15:09.687Z,82.47
2023-07-08T00:16:09.764Z,82.11
2023-07-08T00:17:09.803Z,83.35
2023-07-08T00:18:09.894Z,80.41
2023-07-08T00:19:09.911Z,80.85
2023-07-08T00:20:10.065Z,80.47
2023-07-08T00:21:10.018Z,79.54
2023-07-08T00:22:10.074Z,76.88
2023-07-08T00:23:10.134Z,77.87
2023-07-08T00:24:10.218Z,76.80
2023-07-08T00:25:10.258Z,78.23
2023-07-08T00:26:10.334Z,79.93
2023-07-08T00:27:10.358Z,79.72
2023-07-08T00:28:10.430Z,82.38
2023-07-08T00:29:10.483Z,84.69
2023-07-08T00:30:10.561Z,81.02
2023-07-08T00:31:10.650Z,79.21
2023-07-08T00:32:10.644Z,79.23
2023-07-08T00:33:10.739Z,81.85
2023-07-08T00:34:10.760Z,78.93
2023-07-08T00:35:10.849Z,80.99
2023-07-08T00:36:10.891Z,79.01
2023-07-08T00:37:10.951Z,81.86
2023-07-08T00:38:11.011Z,80.55
2023-07-08T00:39:11.068Z,83.50
2023-07-08T00:40:11.158Z,82.01
2023-07-08T00:41:11.231Z,82.06
2023-07-08T00:42:11.279Z,83.12
2023-07-08T00:43:11.340Z,84.42
2023-07-08T00:44:11.408Z,83.01
2023-07-08T00:45:11.446Z,84.02
2023-07-08T00:46:11.497Z,81.59
2023-07-08T00:47:11.604Z,85.71
2023-07-08T00:48:11.655Z,84.10
2023-07-08T00:49:11.674Z,85.05
2023-07-08T00:50:11.772Z,82.45
2023-07-08T00:51:11.821Z,82.09
2023-07-08T00:52:11.956Z,82.35
2023-07-08T00:53:11.940Z,82.76
2023-07-08T00:54:11.964Z,80.88
2023-07-08T00:55:12.052Z,83.07
2023-07-08T00:56:12.099Z,81.91
2023-07-08T00:57:12.162Z,79.21
2023-07-08T00:58:12.207Z,81.31
2023-07-08T00:59:12.233Z,79.88
2023-07-08T01:00:12.301Z,81.86
2023-07-08T01:01:12.288Z,81.11
2023-07-08T01:02:12.456Z,81.47
2023-07-08T01:03:12.408Z,79.49
2023-07-08T01:04:12.412Z,81.94
2023-07-08T01:05:12.468Z,79.86
2023-07-08T01:06:12.489Z,80.77
2023-07-08T01:07:12.594Z,82.13
2023-07-08T01:08:12.608Z,81.82
2023-07-08T01:09:12.651Z,84.82
2023-07-08T01:10:12.695Z,84.40
2023-07-08T01:11:12.728Z,84.43
2023-07-08T01:12:12.776Z,86.01
2023-07-08T01:13:12.809Z,84.93
2023-07-08T01:14:12.820Z,86.74
2023-07-08T01:15:12.887Z,85.97
2023-07-08T01:16:12.893Z,85.93
2023-07-08T01:17:12.929Z,85.95
2023-07-08T01:18:12.952Z,84.98
2023-07-08T01:19:12.987Z,84.71
2023-07-08T01:20:13.027Z,87.41
2023-07-08T01:21:13.034Z,87.25
2023-07-08T01:22:13.077Z,86.63
2023-07-08T01:23:13.097Z,87.87
2023-07-08T01:24:13.155Z,87.82
2023-07-08T01:25:13.185Z,87.76
2023-07-08T01:26:13.183Z,89.17
2023-07-08T01:27:13.205Z,89.48
2023-07-08T01:28:13.279Z,87.11
2023-07-08T01:29:13.282Z,87.88
2023-07-08T01:30:13.314Z,85.97
2023-07-08T01:31:13.344Z,87.57
2023-07-08T01:32:13.353Z,88.07
2023-07-08T01:33:13.392Z,87.99
2023-07-08T01:34:13.437Z,89.23
2023-07-08T01:35:13.456Z,89.86
2023-07-08T01:36:13.474Z,90.10
2023-07-08T01:37:13.513Z,89.75
2023-07-08T01:38:13.570Z,89.80
2023-07-08T01:39:13.570Z,90.87
2023-07-08T01:40:13.596Z,90.26
2023-07-08T01:41:13.584Z,92.05
2023-07-08T01:42:13.586Z,90.79
2023-07-08T01:43:13.614Z,90.77
2023-07-08T01:44:13.612Z,87.44
2023-07-08T01:45:13.639Z,83.23
2023-07-08T01:46:13.643Z,83.00
2023-07-08T01:47:13.626Z,78.87
2023-07-08T01:48:13.649Z,80.18
2023-07-08T01:49:13.646Z,78.27
2023-07-08T01:50:13.676Z,80.59
2023-07-08T01:51:13.665Z,80.04
2023-07-08T01:52:13.678Z,81.82
2023-07-08T01:53:13.689Z,79.49
2023-07-08T01:54:13.681Z,82.22
2023-07-08T01:55:13.670Z,79.83
2023-07-08T01:56:13.694Z,79.88
2023-07-08T01:57:13.691Z,82.00
2023-07-08T01:58:13.695Z,80.73
2023-07-08T01:59:13.661Z,79.42
2023-07-08T02:00:13.667Z,76.94
2023-07-08T02:01:13.732Z,72.75
2023-07-08T02:02:13.684Z,74.81
2023-07-08T02:03:13.664Z,75.69
2023-07-08T02:04:13.629Z,75.63
2023-07-08T02:05:13.714Z,76.00
2023-07-08T02:06:13.649Z,76.62
2023-07-08T02:07:13.665Z,76.06
2023-07-08T02:08:13.666Z,77.66
2023-07-08T02:09:13.673Z,78.42
2023-07-08T02:10:13.657Z,78.87
2023-07-08T02:11:13.659Z,79.26
2023-07-08T02:12:13.646Z,76.87
2023-07-08T02:13:13.639Z,78.87
2023-07-08T02:14:13.677Z,79.59
2023-07-08T02:15:13.635Z,79.25
2023-07-08T02:16:13.699Z,79.89
2023-07-08T02:17:13.639Z,80.29
2023-07-08T02:18:13.636Z,78.89
2023-07-08T02:19:13.638Z,81.30
2023-07-08T02:20:13.646Z,79.80
2023-07-08T02:21:13.616Z,79.62
2023-07-08T02:22:13.627Z,81.02
2023-07-08T02:23:13.620Z,83.35
2023-07-08T02:24:13.629Z,83.14
2023-07-08T02:25:13.671Z,81.79
2023-07-08T02:26:13.618Z,79.10
2023-07-08T02:27:13.628Z,79.25
2023-07-08T02:28:13.649Z,76.95
2023-07-08T02:29:13.634Z,74.33
2023-07-08T02:30:13.625Z,77.92
2023-07-08T02:31:13.651Z,77.89
2023-07-08T02:32:13.622Z,78.08
2023-07-08T02:33:13.616Z,77.41
2023-07-08T02:34:13.642Z,77.48
2023-07-08T02:35:13.638Z,78.16
2023-07-08T02:36:13.670Z,75.05
2023-07-08T02:37:13.632Z,75.02
2023-07-08T02:38:13.655Z,72.99
2023-07-08T02:39:13.636Z,74.83
2023-07-08T02:40:13.662Z,73.72
2023-07-08T02:41:13.650Z,75.07
2023-07-08T02:42:13.663Z,74.74
2023-07-08T02:43:13.661Z,76.64
2023-07-08T02:44:13.616Z,76.17
2023-07-08T02:45:13.625Z,75.17
2023-07-08T02:46:13.674Z,76.25
2023-07-08T02:47:13.671Z,77.86
2023-07-08T02:48:13.659Z,80.14
2023-07-08T02:49:13.684Z,77.66
2023-07-08T02:50:13.677Z,76.86
2023-07-08T02:51:13.694Z,72.99
2023-07-08T02:52:13.678Z,71.01
2023-07-08T02:53:13.667Z,70.08
2023-07-08T02:54:13.689Z,69.21
2023-07-08T02:55:13.680Z,68.94
2023-07-08T02:56:13.701Z,69.69
2023-07-08T02:57:13.680Z,69.42
2023-07-08T02:58:13.695Z,69.83
2023-07-08T02:59:13.718Z,69.30
2023-07-08T03:00:13.726Z,67.98
2023-07-08T03:01:13.750Z,68.04
2023-07-08T03:02:13.720Z,67.81
2023-07-08T03:03:13.811Z,69.73
2023-07-08T03:04:13.762Z,69.10
2023-07-08T03:05:13.795Z,70.97
2023-07-08T03:06:13.804Z,72.43
2023-07-08T03:07:13.794Z,72.80
2023-07-08T03:08:13.820Z,72.42
2023-07-08T03:09:13.826Z,74.44
2023-07-08T03:10:13.854Z,74.61
2023-07-08T03:11:13.834Z,74.86
2023-07-08T03:12:13.866Z,74.23
2023-07-08T03:13:13.897Z,73.55
2023-07-08T03:14:13.870Z,77.38
2023-07-08T03:15:13.939Z,77.73
2023-07-08T03:16:14.236Z,77.60
2023-07-08T03:17:14.042Z,77.36
2023-07-08T03:18:13.979Z,78.43
2023-07-08T03:19:14.003Z,76.81
2023-07-08T03:20:14.005Z,81.60
2023-07-08T03:21:14.002Z,80.85
2023-07-08T03:22:14.039Z,80.22
2023-07-08T03:23:14.032Z,83.02
2023-07-08T03:24:14.082Z,81.96
2023-07-08T03:25:14.086Z,82.23
2023-07-08T03:26:14.127Z,79.54
2023-07-08T03:27:14.091Z,80.30
2023-07-08T03:28:14.129Z,83.43
2023-07-08T03:29:14.151Z,81.14
2023-07-08T03:30:14.222Z,80.82
2023-07-08T03:31:14.207Z,79.98
2023-07-08T03:32:14.200Z,78.79
2023-07-08T03:33:14.246Z,80.23
2023-07-08T03:34:14.267Z,80.00
2023-07-08T03:35:14.254Z,80.41
2023-07-08T03:36:14.264Z,79.77
2023-07-08T03:37:14.273Z,78.77
2023-07-08T03:38:14.278Z,81.86
2023-07-08T03:39:14.302Z,80.02
2023-07-08T03:40:14.345Z,81.95
2023-07-08T03:41:14.349Z,80.80
2023-07-08T03:42:14.399Z,80.96
2023-07-08T03:43:14.432Z,80.43
2023-07-08T03:44:14.425Z,83.02
2023-07-08T03:45:14.465Z,80.48
2023-07-08T03:46:14.512Z,83.34
2023-07-08T03:47:14.530Z,83.09
2023-07-08T03:48:14.559Z,84.98
2023-07-08T03:49:14.552Z,85.34
2023-07-08T03:50:14.578Z,88.40
2023-07-08T03:51:14.651Z,88.70
2023-07-08T03:52:14.624Z,88.73
2023-07-08T03:53:14.661Z,89.79
2023-07-08T03:54:14.702Z,88.06
2023-07-08T03:55:14.724Z,88.06
2023-07-08T03:56:14.722Z,86.38
2023-07-08T03:57:14.774Z,86.86
2023-07-08T03:58:14.784Z,83.53
2023-07-08T03:59:14.844Z,83.85
2023-07-08T04:00:14.919Z,83.66
2023-07-08T04:01:16.671Z,84.08
2023-07-08T04:02:14.913Z,83.75
2023-07-08T04:03:15.003Z,82.20
2023-07-08T04:04:14.969Z,81.16
2023-07-08T04:05:14.970Z,82.83
2023-07-08T04:06:15.016Z,81.91
2023-07-08T04:07:15.032Z,82.26
2023-07-08T04:08:15.066Z,85.51
2023-07-08T04:09:15.095Z,82.97
2023-07-08T04:10:15.160Z,80.81
2023-07-08T04:11:15.171Z,82.47
2023-07-08T04:12:15.195Z,78.71
2023-07-08T04:13:15.192Z,80.14
2023-07-08T04:14:15.210Z,81.06
2023-07-08T04:15:15.263Z,82.91
2023-07-08T04:16:16.258Z,82.38
2023-07-08T04:17:15.471Z,83.24
2023-07-08T04:18:15.462Z,82.32
2023-07-08T04:19:15.472Z,85.01
2023-07-08T04:20:15.558Z,84.98
2023-07-08T04:22:15.554Z,86.72
2023-07-08T04:23:15.529Z,86.22
2023-07-08T04:24:15.512Z,87.32
2023-07-08T04:25:15.673Z,88.75
2023-07-08T04:26:15.522Z,85.69
2023-07-08T04:27:15.532Z,87.33
2023-07-08T04:28:15.510Z,86.90
2023-07-08T04:29:15.560Z,84.85
2023-07-08T04:30:15.504Z,83.32
2023-07-08T04:31:15.563Z,84.37
2023-07-08T04:32:15.486Z,85.21
2023-07-08T04:33:15.465Z,85.85
2023-07-08T04:34:15.466Z,86.35
2023-07-08T04:35:15.436Z,88.32
2023-07-08T04:36:15.547Z,89.33
2023-07-08T04:37:15.498Z,87.08
2023-07-08T04:38:15.459Z,86.00
2023-07-08T04:39:15.458Z,84.61
2023-07-08T04:40:15.445Z,87.89
2023-07-08T04:41:15.400Z,88.48
2023-07-08T04:42:15.419Z,86.69
2023-07-08T04:43:15.393Z,87.44
2023-07-08T04:44:15.398Z,87.86
2023-07-08T04:45:15.378Z,88.08
2023-07-08T04:46:15.468Z,87.04
2023-07-08T04:47:15.370Z,85.55
2023-07-08T04:48:15.382Z,83.23
2023-07-08T04:49:15.378Z,87.43
2023-07-08T04:50:15.485Z,85.62
2023-07-08T04:51:15.351Z,84.25
2023-07-08T04:52:15.357Z,84.97
2023-07-08T04:53:15.353Z,86.48
2023-07-08T04:54:15.327Z,86.19
2023-07-08T04:55:15.323Z,86.68
2023-07-08T04:56:15.314Z,85.82
2023-07-08T04:57:15.302Z,83.76
2023-07-08T04:58:15.302Z,83.72
2023-07-08T04:59:15.330Z,82.02
2023-07-08T05:00:15.316Z,79.04
2023-07-08T05:01:15.300Z,82.00
2023-07-08T05:02:15.369Z,82.30
2023-07-08T05:03:15.249Z,79.79
2023-07-08T05:04:15.295Z,80.28
2023-07-08T05:05:15.256Z,81.06
2023-07-08T05:06:15.252Z,80.66
2023-07-08T05:07:15.308Z,82.37
2023-07-08T05:08:15.216Z,84.38
2023-07-08T05:09:17.282Z,83.78
2023-07-08T05:10:15.385Z,87.87
2023-07-08T05:11:15.389Z,85.83
2023-07-08T05:12:15.426Z,89.06
2023-07-08T05:13:15.466Z,88.79
2023-07-08T05:14:15.466Z,89.00
2023-07-08T05:15:15.511Z,90.19
2023-07-08T05:16:15.635Z,90.93
2023-07-08T05:17:15.587Z,92.74
2023-07-08T05:18:15.567Z,92.99
2023-07-08T05:19:15.568Z,90.76
2023-07-08T05:20:15.593Z,90.00
2023-07-08T05:21:15.669Z,90.21
2023-07-08T05:22:15.652Z,90.18
2023-07-08T05:23:15.667Z,89.62
2023-07-08T05:24:15.680Z,91.51
2023-07-08T05:25:15.687Z,89.05
2023-07-08T05:26:15.721Z,88.91
2023-07-08T05:27:15.704Z,87.51
2023-07-08T05:28:15.739Z,89.14
2023-07-08T05:29:15.761Z,89.18
2023-07-08T05:30:15.759Z,90.74
2023-07-08T05:31:15.822Z,90.81
2023-07-08T05:32:15.878Z,91.07
2023-07-08T05:33:15.833Z,88.65
2023-07-08T05:34:15.807Z,88.42
2023-07-08T05:35:15.840Z,89.01
2023-07-08T05:36:15.849Z,89.38
2023-07-08T05:37:15.848Z,89.74
2023-07-08T05:38:15.854Z,89.10
2023-07-08T05:39:15.887Z,88.63
2023-07-08T05:40:15.892Z,88.25
2023-07-08T05:41:15.912Z,85.80
2023-07-08T05:42:15.904Z,87.40
2023-07-08T05:43:15.950Z,86.99
2023-07-08T05:44:15.990Z,85.68
2023-07-08T05:45:16.002Z,86.32
2023-07-08T05:46:16.021Z,85.15
2023-07-08T05:47:16.035Z,86.10
2023-07-08T05:48:16.063Z,87.73
2023-07-08T05:49:16.071Z,87.40
2023-07-08T05:50:16.097Z,88.09
2023-07-08T05:51:16.113Z,88.49
2023-07-08T05:52:16.092Z,90.10
2023-07-08T05:53:16.134Z,92.50
2023-07-08T05:54:16.158Z,91.02
2023-07-08T05:55:16.164Z,90.32
2023-07-08T05:56:16.173Z,92.45
2023-07-08T05:57:16.192Z,91.86
2023-07-08T05:58:26.037Z,89.76
2023-07-08T05:59:17.195Z,89.84
2023-07-08T06:00:23.948Z,87.03
2023-07-08T06:01:17.184Z,89.84
2023-07-08T06:02:16.180Z,89.78
2023-07-08T06:03:16.185Z,87.47
2023-07-08T06:04:16.180Z,88.26
2023-07-08T06:05:16.110Z,86.63
2023-07-08T06:06:16.133Z,86.66
2023-07-08T06:07:16.142Z,88.34
2023-07-08T06:08:16.130Z,88.28
2023-07-08T06:09:16.112Z,89.60
2023-07-08T06:10:16.089Z,91.16
2023-07-08T06:11:16.129Z,92.40
2023-07-08T06:12:16.094Z,95.51
2023-07-08T06:13:16.095Z,94.33
2023-07-08T06:14:16.088Z,95.12
2023-07-08T06:15:16.078Z,96.84
2023-07-08T06:16:18.318Z,94.80
2023-07-08T06:17:17.179Z,94.98
2023-07-08T06:18:16.040Z,95.03
2023-07-08T06:19:16.144Z,94.37
2023-07-08T06:20:16.044Z,92.15
2023-07-08T06:21:16.028Z,91.39
2023-07-08T06:22:44.772Z,93.38
2023-07-08T06:23:17.033Z,93.50
2023-07-08T06:24:16.012Z,93.66
2023-07-08T06:25:15.990Z,93.71
2023-07-08T06:26:16.002Z,93.70
2023-07-08T06:27:15.977Z,95.79
2023-07-08T06:28:15.982Z,97.54
2023-07-08T06:29:16.003Z,97.24
2023-07-08T06:30:15.981Z,97.79
2023-07-08T06:31:16.019Z,98.65
2023-07-08T06:32:15.969Z,99.08
2023-07-08T06:33:16.032Z,97.58
2023-07-08T06:34:15.969Z,98.47
2023-07-08T06:35:15.943Z,97.86
2023-07-08T06:36:15.926Z,98.83
2023-07-08T06:37:15.948Z,99.24
2023-07-08T06:38:15.913Z,99.67
2023-07-08T06:39:15.915Z,99.83
2023-07-08T06:40:15.899Z,98.87
2023-07-08T06:41:15.889Z,97.12
2023-07-08T06:42:15.939Z,99.13
2023-07-08T06:43:15.859Z,100.11
2023-07-08T06:44:15.889Z,99.99
2023-07-08T06:45:15.860Z,101.81
2023-07-08T06:46:15.974Z,102.39
2023-07-08T06:47:15.839Z,104.89
2023-07-08T06:48:15.851Z,105.05
2023-07-08T06:49:15.847Z,104.35
2023-07-08T06:50:15.845Z,105.51
2023-07-08T06:51:15.852Z,104.88
2023-07-08T06:52:15.849Z,99.29
2023-07-08T06:53:15.813Z,99.33
2023-07-08T06:54:15.862Z,96.03
2023-07-08T06:55:15.878Z,94.49
2023-07-08T06:56:15.866Z,96.03
2023-07-08T06:57:15.822Z,96.19
2023-07-08T06:58:15.801Z,92.16
2023-07-08T06:59:15.812Z,95.21
2023-07-08T07:00:15.761Z,94.32
2023-07-08T07:01:15.779Z,96.40
2023-07-08T07:02:15.779Z,97.49
2023-07-08T07:03:15.793Z,96.63
2023-07-08T07:04:15.744Z,99.15
2023-07-08T07:05:15.720Z,97.96
2023-07-08T07:06:15.750Z,97.68
2023-07-08T07:07:15.705Z,100.08
2023-07-08T07:08:15.700Z,99.73
2023-07-08T07:09:15.723Z,103.95
2023-07-08T07:10:15.709Z,104.65
2023-07-08T07:11:15.773Z,104.21
2023-07-08T07:12:15.827Z,106.94
2023-07-08T07:13:15.917Z,106.08
2023-07-08T07:15:15.923Z,106.68
2023-07-08T07:16:15.956Z,109.07
2023-07-08T07:17:15.992Z,110.53
2023-07-08T07:18:15.897Z,110.43
2023-07-08T07:19:15.923Z,112.02
2023-07-08T07:20:15.921Z,110.62
2023-07-08T07:21:15.911Z,114.52
2023-07-08T07:22:15.870Z,117.12
2023-07-08T07:23:15.900Z,120.01
2023-07-08T07:24:15.872Z,120.11
2023-07-08T07:25:15.888Z,122.85
2023-07-08T07:26:15.907Z,121.43
2023-07-08T07:27:15.852Z,122.16
2023-07-08T07:28:15.826Z,123.00
2023-07-08T07:29:15.838Z,123.97
2023-07-08T07:30:15.813Z,124.40
2023-07-08T07:31:15.903Z,125.66
2023-07-08T07:32:15.807Z,123.84
2023-07-08T07:33:15.818Z,125.95
2023-07-08T07:34:15.771Z,127.01
2023-07-08T07:35:15.853Z,126.30
2023-07-08T07:36:15.790Z,131.10
2023-07-08T07:37:15.799Z,135.01
2023-07-08T07:38:15.806Z,136.52
2023-07-08T07:39:15.761Z,135.03
2023-07-08T07:40:15.762Z,129.98
2023-07-08T07:41:15.750Z,126.26
2023-07-08T07:42:17.443Z,127.92
2023-07-08T07:43:15.764Z,129.25
2023-07-08T07:44:15.734Z,130.37
2023-07-08T07:45:15.738Z,129.13
2023-07-08T07:46:15.733Z,130.42
2023-07-08T07:47:15.703Z,127.06
2023-07-08T07:48:15.766Z,124.93
2023-07-08T07:49:15.680Z,123.52
2023-07-08T07:50:15.742Z,122.69
2023-07-08T07:51:15.804Z,116.38
2023-07-08T07:52:15.837Z,116.57
2023-07-08T07:53:15.920Z,117.24
2023-07-08T07:54:15.931Z,115.08
2023-07-08T07:55:16.012Z,113.99
2023-07-08T07:56:16.043Z,114.31
2023-07-08T07:57:16.071Z,109.30
2023-07-08T07:58:16.118Z,111.67
2023-07-08T07:59:16.157Z,113.41
2023-07-08T08:00:16.221Z,111.77
2023-07-08T08:01:16.329Z,111.43
2023-07-08T08:02:16.446Z,115.06
2023-07-08T08:03:16.396Z,114.28
2023-07-08T08:04:16.380Z,113.72
2023-07-08T08:05:16.440Z,111.82
2023-07-08T08:06:16.476Z,115.45
2023-07-08T08:07:16.505Z,113.28
2023-07-08T08:08:16.525Z,114.17
2023-07-08T08:09:16.640Z,113.02
2023-07-08T08:10:16.656Z,113.14
2023-07-08T08:11:16.688Z,115.99
2023-07-08T08:12:16.718Z,112.47
2023-07-08T08:13:16.810Z,115.14
2023-07-08T08:14:16.868Z,116.14
2023-07-08T08:15:16.820Z,113.72
2023-07-08T08:16:16.881Z,115.20
2023-07-08T08:17:16.970Z,116.51
2023-07-08T08:18:16.960Z,113.97
2023-07-08T08:19:16.964Z,112.31
2023-07-08T08:20:17.032Z,111.23
2023-07-08T08:21:17.059Z,112.15
2023-07-08T08:22:17.065Z,112.25
2023-07-08T08:23:17.133Z,111.21
2023-07-08T08:24:17.163Z,113.30
2023-07-08T08:25:17.293Z,111.40
2023-07-08T08:26:17.224Z,110.74
2023-07-08T08:27:17.261Z,110.86
2023-07-08T08:28:17.321Z,114.01
2023-07-08T08:29:17.309Z,113.62
2023-07-08T08:30:17.374Z,113.39
2023-07-08T08:31:17.438Z,107.40
2023-07-08T08:32:17.469Z,104.80
2023-07-08T08:33:17.483Z,107.72
2023-07-08T08:34:17.536Z,107.54
2023-07-08T08:35:17.540Z,108.99
2023-07-08T08:36:17.570Z,109.01
2023-07-08T08:37:17.631Z,109.81
2023-07-08T08:38:17.630Z,113.81
2023-07-08T08:39:17.662Z,116.11
2023-07-08T08:40:19.860Z,116.98
2023-07-08T08:41:17.695Z,119.28
2023-07-08T08:42:17.690Z,118.49
2023-07-08T08:43:17.697Z,116.74
2023-07-08T08:44:17.679Z,116.12
2023-07-08T08:45:17.667Z,116.96
2023-07-08T08:46:17.667Z,115.87
2023-07-08T08:47:17.705Z,117.40
2023-07-08T08:48:17.664Z,117.12
2023-07-08T08:49:17.665Z,116.15
2023-07-08T08:50:17.672Z,116.06
2023-07-08T08:51:17.646Z,117.56
2023-07-08T08:52:17.652Z,115.35
2023-07-08T08:53:17.647Z,114.01
2023-07-08T08:54:17.609Z,115.50
2023-07-08T08:55:17.611Z,112.76
2023-07-08T08:56:19.923Z,109.66
2023-07-08T08:57:17.813Z,115.70
2023-07-08T08:58:17.821Z,116.38
2023-07-08T08:59:17.877Z,114.79
2023-07-08T09:00:17.861Z,114.48
2023-07-08T09:01:17.889Z,113.66
2023-07-08T09:02:17.923Z,113.29
2023-07-08T09:03:17.936Z,112.55
2023-07-08T09:04:18.096Z,113.03
2023-07-08T09:05:17.972Z,114.95
2023-07-08T09:06:17.983Z,116.67
2023-07-08T09:07:18.019Z,115.66
2023-07-08T09:08:18.054Z,114.06
2023-07-08T09:09:18.077Z,113.16
2023-07-08T09:10:18.084Z,113.62
2023-07-08T09:11:18.127Z,117.91
2023-07-08T09:12:19.347Z,120.56
2023-07-08T09:13:18.174Z,121.95
2023-07-08T09:14:18.179Z,124.87
2023-07-08T09:15:18.175Z,126.00
2023-07-08T09:16:18.271Z,127.67
2023-07-08T09:17:18.232Z,129.65
2023-07-08T09:18:18.264Z,130.41
2023-07-08T09:19:18.268Z,131.70
2023-07-08T09:20:18.301Z,129.57
2023-07-08T09:21:18.326Z,129.57
2023-07-08T09:22:18.342Z,131.04
2023-07-08T09:23:18.380Z,127.91
2023-07-08T09:24:18.432Z,122.27
2023-07-08T09:25:18.436Z,117.79
2023-07-08T09:26:18.486Z,116.16
2023-07-08T09:27:20.023Z,111.63
2023-07-08T09:28:18.497Z,108.19
2023-07-08T09:29:18.523Z,105.15
2023-07-08T09:30:18.572Z,104.83
2023-07-08T09:31:18.680Z,103.77
2023-07-08T09:32:18.627Z,107.13
2023-07-08T09:33:18.604Z,108.12
2023-07-08T09:34:18.628Z,110.97
2023-07-08T09:35:18.660Z,113.11
2023-07-08T09:36:18.694Z,114.65
2023-07-08T09:37:18.707Z,113.60
2023-07-08T09:38:18.740Z,118.27
2023-07-08T09:39:18.763Z,122.10
2023-07-08T09:40:18.773Z,124.43
2023-07-08T09:41:19.469Z,124.57
2023-07-08T09:42:18.841Z,125.62
2023-07-08T09:43:18.830Z,126.43
2023-07-08T09:44:18.844Z,122.43
2023-07-08T09:45:18.897Z,117.60
2023-07-08T09:46:19.001Z,117.23
2023-07-08T09:47:20.014Z,116.62
2023-07-08T09:48:19.013Z,119.09
2023-07-08T09:49:18.980Z,122.48
2023-07-08T09:50:18.963Z,123.81
2023-07-08T09:51:19.000Z,126.68
2023-07-08T09:52:19.013Z,127.01
2023-07-08T09:53:19.007Z,124.46
2023-07-08T09:54:19.011Z,124.77
2023-07-08T09:55:19.056Z,125.26
2023-07-08T09:56:19.057Z,126.43
2023-07-08T09:57:19.065Z,128.38
2023-07-08T09:58:19.123Z,131.02
2023-07-08T09:59:19.118Z,132.67
2023-07-08T10:00:19.134Z,135.27
2023-07-08T10:01:19.188Z,129.21
2023-07-08T10:02:19.179Z,125.84
2023-07-08T10:03:19.157Z,120.10
2023-07-08T10:04:19.234Z,116.23
2023-07-08T10:05:19.177Z,115.82
2023-07-08T10:06:19.228Z,116.75
2023-07-08T10:07:19.226Z,121.00
2023-07-08T10:08:19.228Z,124.97
2023-07-08T10:09:19.275Z,129.71
2023-07-08T10:10:19.303Z,131.47
2023-07-08T10:11:19.301Z,134.88
2023-07-08T10:12:19.331Z,138.19
2023-07-08T10:13:19.288Z,138.67
2023-07-08T10:14:20.816Z,138.58
2023-07-08T10:15:19.367Z,138.03
2023-07-08T10:16:19.403Z,136.22
2023-07-08T10:17:19.334Z,135.57
2023-07-08T10:18:19.359Z,137.41
2023-07-08T10:19:19.426Z,139.10
2023-07-08T10:20:19.396Z,140.71
2023-07-08T10:21:19.412Z,140.45
2023-07-08T10:22:19.412Z,140.17
2023-07-08T10:23:19.420Z,141.44
2023-07-08T10:24:19.426Z,140.46
2023-07-08T10:25:19.437Z,134.80
2023-07-08T10:26:19.474Z,133.93
2023-07-08T10:27:19.449Z,134.41
2023-07-08T10:28:19.483Z,135.06
2023-07-08T10:29:19.483Z,138.28
2023-07-08T10:30:19.461Z,139.01
2023-07-08T10:31:19.552Z,142.58
2023-07-08T10:32:19.541Z,143.07
2023-07-08T10:33:19.515Z,145.39
2023-07-08T10:34:19.508Z,145.29
2023-07-08T10:35:19.506Z,145.73
2023-07-08T10:36:19.504Z,144.54
2023-07-08T10:37:19.527Z,145.85
2023-07-08T10:38:19.522Z,145.87
2023-07-08T10:39:19.525Z,145.02
2023-07-08T10:40:19.531Z,144.84
2023-07-08T10:41:19.544Z,145.95
2023-07-08T10:42:19.508Z,146.01
2023-07-08T10:43:19.514Z,146.15
2023-07-08T10:44:19.537Z,145.63
2023-07-08T10:45:19.534Z,146.49
2023-07-08T10:46:19.603Z,145.93
2023-07-08T10:47:19.505Z,146.73
2023-07-08T10:48:19.528Z,146.23
2023-07-08T10:49:19.513Z,146.09
2023-07-08T10:50:19.518Z,142.31
2023-07-08T10:51:19.537Z,141.96
2023-07-08T10:52:19.482Z,139.84
2023-07-08T10:53:19.489Z,136.96
2023-07-08T10:54:19.477Z,136.74
2023-07-08T10:55:19.492Z,140.44
2023-07-08T10:56:19.492Z,140.33
2023-07-08T10:57:19.479Z,144.28
2023-07-08T10:58:19.450Z,145.71
2023-07-08T10:59:19.454Z,141.27
2023-07-08T11:00:19.458Z,140.73
2023-07-08T11:01:19.518Z,139.76
2023-07-08T11:02:19.442Z,141.80
2023-07-08T11:03:19.538Z,142.14
2023-07-08T11:04:19.467Z,144.07
2023-07-08T11:05:19.442Z,146.55
2023-07-08T11:06:19.469Z,146.00
2023-07-08T11:07:19.461Z,145.28
2023-07-08T11:08:19.480Z,146.88
2023-07-08T11:09:19.463Z,147.47
2023-07-08T11:10:19.486Z,148.50
2023-07-08T11:11:19.646Z,147.55
2023-07-08T11:12:19.447Z,148.12
2023-07-08T11:13:19.474Z,147.55
2023-07-08T11:14:19.456Z,146.18
2023-07-08T11:15:19.466Z,146.76
2023-07-08T11:16:19.472Z,147.76
2023-07-08T11:17:19.442Z,146.79
2023-07-08T11:18:19.450Z,146.54
2023-07-08T11:19:19.449Z,147.39
2023-07-08T11:20:19.438Z,146.37
2023-07-08T11:21:19.472Z,147.63
2023-07-08T11:22:19.484Z,145.68
2023-07-08T11:23:19.482Z,146.93
2023-07-08T11:24:19.501Z,149.72
2023-07-08T11:25:19.506Z,149.26
2023-07-08T11:26:19.492Z,149.44
2023-07-08T11:27:19.499Z,148.45
2023-07-08T11:28:19.551Z,148.46
2023-07-08T11:29:19.567Z,148.31
2023-07-08T11:30:19.581Z,148.90
2023-07-08T11:31:19.675Z,144.97
2023-07-08T11:32:19.607Z,147.40
2023-07-08T11:33:19.636Z,145.36
2023-07-08T11:34:19.670Z,144.79
2023-07-08T11:35:19.700Z,144.05
2023-07-08T11:36:19.725Z,143.15
2023-07-08T11:37:19.752Z,142.82
2023-07-08T11:38:19.815Z,142.31
2023-07-08T11:39:19.836Z,139.51
2023-07-08T11:40:19.916Z,138.58
2023-07-08T11:41:19.942Z,138.12
2023-07-08T11:42:19.947Z,138.76
2023-07-08T11:43:19.973Z,140.30
2023-07-08T11:44:20.027Z,143.13
2023-07-08T11:45:20.041Z,142.68
2023-07-08T11:46:20.063Z,143.97
2023-07-08T11:47:20.293Z,144.83
2023-07-08T11:48:20.293Z,144.70
2023-07-08T11:49:20.154Z,146.05
2023-07-08T11:50:20.239Z,143.63
2023-07-08T11:51:20.209Z,143.40
2023-07-08T11:52:20.258Z,144.42
2023-07-08T11:53:20.271Z,144.64
2023-07-08T11:54:20.296Z,144.01
2023-07-08T11:55:20.318Z,143.47
2023-07-08T11:56:20.358Z,142.06
2023-07-08T11:57:20.381Z,141.92
2023-07-08T11:58:20.392Z,144.50
2023-07-08T11:59:20.462Z,145.44
2023-07-08T12:00:20.470Z,145.12
2023-07-08T12:01:20.595Z,144.39
2023-07-08T12:02:20.681Z,143.73
2023-07-08T12:03:20.677Z,143.08
2023-07-08T12:04:20.640Z,142.92
2023-07-08T12:05:20.656Z,140.75
2023-07-08T12:06:20.748Z,137.45
2023-07-08T12:07:20.919Z,136.19
2023-07-08T12:08:20.811Z,137.59
2023-07-08T12:09:20.919Z,140.36
2023-07-08T12:10:20.919Z,140.14
2023-07-08T12:11:20.984Z,140.58
2023-07-08T12:12:21.014Z,140.53
2023-07-08T12:13:21.123Z,139.36
2023-07-08T12:14:21.132Z,140.69
2023-07-08T12:15:21.209Z,139.57
2023-07-08T12:16:21.318Z,133.94
2023-07-08T12:17:21.381Z,129.35
2023-07-08T12:18:21.400Z,125.86
2023-07-08T12:19:21.472Z,123.75
2023-07-08T12:20:23.172Z,122.94
2023-07-08T12:21:21.562Z,124.83
2023-07-08T12:22:21.599Z,128.99
2023-07-08T12:23:23.005Z,130.97
2023-07-08T12:24:21.716Z,132.34
2023-07-08T12:25:21.794Z,134.18
2023-07-08T12:26:21.897Z,135.18
2023-07-08T12:27:23.139Z,134.06
2023-07-08T12:28:21.992Z,135.04
2023-07-08T12:29:22.059Z,134.80
2023-07-08T12:30:22.127Z,134.08
2023-07-08T12:31:22.319Z,134.13
2023-07-08T12:32:22.279Z,133.61
2023-07-08T12:33:22.379Z,132.43
2023-07-08T12:34:22.344Z,128.93
2023-07-08T12:35:22.397Z,125.73
2023-07-08T12:36:22.507Z,120.84
2023-07-08T12:37:22.529Z,120.83
2023-07-08T12:38:22.597Z,120.47
2023-07-08T12:39:22.653Z,124.32
2023-07-08T12:40:22.704Z,128.61
2023-07-08T12:41:23.241Z,130.16
2023-07-08T12:42:22.857Z,130.94
2023-07-08T12:43:22.904Z,131.85